Time;durP1;ratioP1;P1;durP2;ratioP2;P2;SDS_P1;SDS_P2;PMS_P1;PMS_P2;Temp;Humidity;BMP_temperature;BMP_pressure;BME280_temperature;BME280_humidity;BME280_pressure;Samples;Min_cycle;Max_cycle;Signal;HPM_P1;HPM_P2
2021/08/11 00:02:22;;;;;;;0.20;0.20;;;19.50;99.90;;;;;;4969709;28;20031;-92
2021/08/11 00:04:47;;;;;;;0.30;0.30;;;19.50;99.90;;;;;;4969652;28;20026;-93
2021/08/11 00:07:13;;;;;;;0.10;0.10;;;19.60;99.90;;;;;;4968915;28;20039;-92
2021/08/11 00:09:39;;;;;;;0.60;0.23;;;19.60;99.90;;;;;;4962409;28;20066;-93
2021/08/11 00:12:05;;;;;;;0.37;0.37;;;19.50;99.90;;;;;;4967870;28;20062;-92
2021/08/11 00:14:30;;;;;;;0.40;0.40;;;19.50;99.90;;;;;;4966696;28;20457;-92
2021/08/11 00:16:56;;;;;;;0.10;0.10;;;19.40;99.90;;;;;;4970460;28;20087;-92
2021/08/11 00:19:22;;;;;;;1.43;1.30;;;19.30;99.90;;;;;;4969815;28;20026;-92
2021/08/11 00:21:48;;;;;;;0.20;0.20;;;19.30;99.90;;;;;;4968115;28;20109;-92
2021/08/11 00:24:14;;;;;;;0.63;0.50;;;19.30;99.90;;;;;;4966557;28;20081;-92
2021/08/11 00:26:40;;;;;;;0.53;0.20;;;19.30;99.90;;;;;;4960277;28;20039;-92
2021/08/11 00:29:05;;;;;;;0.33;0.33;;;19.20;99.90;;;;;;4969376;28;20078;-93
2021/08/11 00:31:31;;;;;;;1.77;1.07;;;19.30;99.90;;;;;;4969263;28;20082;-93
2021/08/11 00:33:57;;;;;;;0.30;0.23;;;19.30;99.90;;;;;;4967569;28;20030;-95
2021/08/11 00:36:22;;;;;;;0.53;0.53;;;19.60;99.90;;;;;;4969660;28;20035;-93
2021/08/11 00:38:49;;;;;;;0.20;0.20;;;19.60;99.90;;;;;;4969041;28;20066;-94
2021/08/11 00:41:15;;;;;;;0.52;0.20;;;19.30;99.90;;;;;;4966874;28;20474;-94
2021/08/11 00:43:41;;;;;;;0.00;0.00;;;19.50;99.90;;;;;;4965592;28;20028;-94
2021/08/11 00:46:08;;;;;;;0.00;0.00;;;19.30;99.90;;;;;;4967229;28;20035;-92
2021/08/11 00:48:35;;;;;;;0.13;0.13;;;19.00;99.90;;;;;;4969185;28;20129;-92
2021/08/11 00:51:02;;;;;;;1.60;0.40;;;19.10;99.90;;;;;;4966207;28;20035;-95
2021/08/11 00:53:28;;;;;;;;;;;18.90;99.90;;;;;;4965622;28;20026;-94
2021/08/11 00:55:59;;;;;;;0.20;0.20;;;18.90;99.90;;;;;;4968964;28;20004;-93
2021/08/11 00:58:25;;;;;;;0.20;0.20;;;18.80;99.90;;;;;;4968726;28;20053;-93
2021/08/11 01:00:53;;;;;;;0.28;0.10;;;18.80;99.90;;;;;;4968474;28;20117;-94
2021/08/11 01:03:21;;;;;;;0.20;0.20;;;18.80;99.90;;;;;;4968973;28;20062;-94
2021/08/11 01:05:49;;;;;;;0.10;0.10;;;18.80;99.90;;;;;;4966450;28;20042;-92
2021/08/11 01:08:17;;;;;;;1.30;1.20;;;18.70;99.90;;;;;;4971709;28;20042;-93
2021/08/11 01:10:43;;;;;;;0.73;0.45;;;19.00;99.90;;;;;;4972205;28;20027;-93
2021/08/11 01:13:11;;;;;;;0.40;0.32;;;18.90;99.90;;;;;;4974156;28;20041;-93
2021/08/11 01:15:38;;;;;;;0.17;0.17;;;18.90;99.90;;;;;;4968684;28;20051;-94
2021/08/11 01:18:04;;;;;;;0.50;0.40;;;18.80;99.90;;;;;;4973357;28;20599;-93
2021/08/11 01:20:34;;;;;;;0.20;0.20;;;18.90;99.90;;;;;;4973489;28;20023;-94
2021/08/11 01:23:05;;;;;;;0.17;0.17;;;18.80;99.90;;;;;;4967371;28;20085;-94
2021/08/11 01:25:40;;;;;;;0.38;0.38;;;18.70;99.90;;;;;;4973760;28;20489;-94
2021/08/11 01:28:27;;;;;;;0.52;0.52;;;18.70;99.90;;;;;;4973372;28;20042;-94
2021/08/11 01:30:58;;;;;;;0.28;0.28;;;18.70;99.90;;;;;;4969381;28;20058;-93
2021/08/11 01:33:38;;;;;;;0.40;0.40;;;18.60;99.90;;;;;;4972310;28;20035;-95
2021/08/11 01:36:42;;;;;;;4.57;1.90;;;18.90;99.90;;;;;;4967922;28;20433;-94
2021/08/11 01:39:54;;;;;;;1.95;0.40;;;18.80;99.90;;;;;;4986698;28;20698;-93
2021/08/11 01:42:21;;;;;;;0.10;0.10;;;18.60;99.90;;;;;;4886477;29;20043;-93
2021/08/11 01:44:55;;;;;;;0.10;0.10;;;18.50;99.90;;;;;;4880533;29;20036;-93
2021/08/11 01:47:26;;;;;;;0.20;0.20;;;18.30;99.90;;;;;;4890227;29;20075;-93
2021/08/11 01:49:53;;;;;;;0.43;0.30;;;18.40;99.90;;;;;;4883172;29;20029;-93
2021/08/11 01:52:19;;;;;;;1.15;0.88;;;18.30;99.90;;;;;;4886322;29;20056;-93
2021/08/11 01:54:46;;;;;;;0.20;0.20;;;18.30;99.90;;;;;;4896037;29;20051;-92
2021/08/11 01:57:13;;;;;;;0.52;0.47;;;18.30;99.90;;;;;;4889525;29;20059;-92
2021/08/11 01:59:41;;;;;;;0.52;0.52;;;18.20;99.90;;;;;;4896460;29;20121;-93
2021/08/11 02:02:10;;;;;;;0.55;0.50;;;18.00;99.90;;;;;;4883766;29;20136;-93
2021/08/11 02:04:36;;;;;;;0.57;0.57;;;17.90;99.90;;;;;;4886978;29;20185;-94
2021/08/11 02:07:03;;;;;;;0.30;0.30;;;17.90;99.90;;;;;;4890827;29;20127;-92
2021/08/11 02:09:29;;;;;;;0.00;0.00;;;18.00;99.90;;;;;;4881689;29;20047;-93
2021/08/11 02:11:56;;;;;;;0.47;0.43;;;18.00;99.90;;;;;;4898674;29;20036;-93
2021/08/11 02:14:22;;;;;;;0.98;0.88;;;18.00;99.90;;;;;;4964484;28;20038;-93
2021/08/11 02:16:48;;;;;;;0.35;0.35;;;18.10;99.90;;;;;;4961997;28;20031;-92
2021/08/11 02:19:14;;;;;;;0.10;0.10;;;18.00;99.90;;;;;;4969680;28;20041;-92
2021/08/11 02:21:40;;;;;;;0.23;0.23;;;18.10;99.90;;;;;;4967852;28;20031;-92
2021/08/11 02:24:09;;;;;;;0.45;0.28;;;18.00;99.90;;;;;;4967327;28;20089;-92
2021/08/11 02:26:40;;;;;;;0.20;0.20;;;18.00;99.90;;;;;;4966653;28;20034;-91
2021/08/11 02:29:18;;;;;;;0.25;0.25;;;17.90;99.90;;;;;;4963342;28;20036;-94
2021/08/11 02:31:51;;;;;;;0.10;0.10;;;17.90;99.90;;;;;;4963586;28;20027;-91
2021/08/11 02:34:32;;;;;;;0.52;0.50;;;17.90;99.90;;;;;;4960116;28;20167;-93
2021/08/11 02:37:04;;;;;;;0.55;0.55;;;17.90;99.90;;;;;;4963150;28;20058;-92
2021/08/11 02:39:39;;;;;;;0.43;0.30;;;17.90;99.90;;;;;;4954236;28;20031;-93
2021/08/11 02:42:11;;;;;;;0.63;0.45;;;17.80;99.90;;;;;;4968256;28;20065;-93
2021/08/11 02:44:41;;;;;;;0.50;0.50;;;17.80;99.90;;;;;;4967909;28;20125;-91
2021/08/11 02:47:07;;;;;;;0.20;0.10;;;17.80;99.90;;;;;;4967331;28;20031;-92
2021/08/11 02:49:35;;;;;;;0.20;0.17;;;17.80;99.90;;;;;;4969210;28;20043;-92
2021/08/11 02:52:01;;;;;;;0.35;0.35;;;17.70;99.90;;;;;;4970503;28;20042;-93
2021/08/11 02:54:29;;;;;;;0.20;0.20;;;17.80;99.90;;;;;;4967305;28;20042;-94
2021/08/11 02:56:55;;;;;;;0.38;0.38;;;17.70;99.90;;;;;;4970619;28;20623;-93
2021/08/11 02:59:24;;;;;;;0.90;0.32;;;17.60;99.90;;;;;;4969291;28;20027;-94
2021/08/11 03:01:52;;;;;;;0.43;0.43;;;17.60;99.90;;;;;;4966028;28;20031;-92
2021/08/11 03:04:17;;;;;;;0.93;0.38;;;17.50;99.90;;;;;;4970544;28;20034;-93
2021/08/11 03:06:44;;;;;;;0.50;0.50;;;17.50;99.90;;;;;;4966060;28;20030;-92
2021/08/11 03:09:09;;;;;;;0.20;0.20;;;17.50;99.90;;;;;;4961190;28;20039;-92
2021/08/11 03:11:36;;;;;;;0.30;0.30;;;17.50;99.90;;;;;;4969626;28;20031;-93
2021/08/11 03:14:04;;;;;;;;;;;17.50;99.90;;;;;;4968682;28;20038;-92
2021/08/11 03:16:30;;;;;;;0.10;0.10;;;17.50;99.90;;;;;;4964497;28;19941;-92
2021/08/11 03:18:55;;;;;;;0.23;0.23;;;17.30;99.90;;;;;;4961965;28;20027;-92
2021/08/11 03:21:21;;;;;;;0.40;0.40;;;17.40;99.90;;;;;;4968364;28;20475;-93
2021/08/11 03:23:47;;;;;;;1.90;0.93;;;17.40;99.90;;;;;;4968190;28;20038;-92
2021/08/11 03:26:13;;;;;;;0.53;0.53;;;17.30;99.90;;;;;;4968626;28;20019;-91
2021/08/11 03:28:39;;;;;;;0.63;0.37;;;17.20;99.90;;;;;;4966683;28;20552;-91
2021/08/11 03:31:04;;;;;;;0.20;0.20;;;17.10;99.90;;;;;;4969156;28;20057;-93
2021/08/11 03:33:30;;;;;;;0.23;0.23;;;16.90;99.90;;;;;;4961483;28;20295;-92
2021/08/11 03:35:56;;;;;;;0.10;0.10;;;17.00;99.90;;;;;;4966108;28;20027;-90
2021/08/11 03:38:22;;;;;;;5.03;0.73;;;16.90;99.90;;;;;;4967323;28;20481;-93
2021/08/11 03:40:47;;;;;;;0.53;0.37;;;16.90;99.90;;;;;;4966029;28;20031;-92
2021/08/11 03:43:13;;;;;;;1.00;0.63;;;16.80;99.90;;;;;;4969219;28;20039;-92
2021/08/11 03:45:39;;;;;;;0.20;0.20;;;16.80;99.90;;;;;;4969159;28;20033;-92
2021/08/11 03:48:05;;;;;;;0.60;0.40;;;16.70;99.90;;;;;;4969972;28;20050;-93
2021/08/11 03:50:31;;;;;;;0.32;0.32;;;16.70;99.90;;;;;;4964732;28;20035;-92
2021/08/11 03:52:57;;;;;;;0.23;0.23;;;16.90;99.90;;;;;;4970604;28;20647;-92
2021/08/11 03:55:27;;;;;;;1.10;0.70;;;16.90;99.90;;;;;;4967270;28;20041;-92
2021/08/11 03:57:52;;;;;;;1.23;0.70;;;16.90;99.90;;;;;;4965092;28;20053;-92
2021/08/11 04:00:18;;;;;;;1.03;0.57;;;16.80;99.90;;;;;;4966102;28;20031;-91
2021/08/11 04:02:44;;;;;;;0.20;0.20;;;16.80;99.90;;;;;;4966280;28;20034;-93
2021/08/11 04:05:10;;;;;;;0.47;0.47;;;16.80;99.90;;;;;;4967997;28;20039;-93
2021/08/11 04:07:36;;;;;;;2.05;0.95;;;16.80;99.90;;;;;;4966178;28;20046;-92
2021/08/11 04:10:05;;;;;;;0.63;0.63;;;16.90;99.90;;;;;;4971278;28;20030;-92
2021/08/11 04:12:30;;;;;;;2.00;1.15;;;16.90;99.90;;;;;;4970953;28;20498;-92
2021/08/11 04:14:56;;;;;;;0.27;0.27;;;17.10;99.90;;;;;;4969432;28;20131;-94
2021/08/11 04:17:21;;;;;;;3.03;0.57;;;17.00;99.90;;;;;;4970315;28;20043;-93
2021/08/11 04:19:47;;;;;;;0.63;0.63;;;16.80;99.90;;;;;;4969640;28;20030;-94
2021/08/11 04:22:13;;;;;;;0.20;0.20;;;16.90;99.90;;;;;;4969267;28;20050;-93
2021/08/11 04:24:38;;;;;;;0.67;0.67;;;17.10;99.90;;;;;;4962588;28;20037;-93
2021/08/11 04:27:04;;;;;;;0.30;0.30;;;17.40;99.90;;;;;;4968068;28;20383;-92
2021/08/11 04:29:30;;;;;;;2.60;0.93;;;17.40;99.90;;;;;;4968398;28;20504;-90
2021/08/11 04:31:55;;;;;;;0.13;0.13;;;17.30;99.90;;;;;;4968119;28;20521;-91
2021/08/11 04:34:21;;;;;;;0.30;0.30;;;17.40;99.90;;;;;;4966269;28;20034;-91
2021/08/11 04:36:47;;;;;;;1.53;0.37;;;17.50;99.90;;;;;;4969201;28;20023;-92
2021/08/11 04:39:13;;;;;;;0.37;0.37;;;17.30;99.90;;;;;;4968807;28;20038;-93
2021/08/11 04:41:38;;;;;;;1.20;0.67;;;17.10;99.90;;;;;;4974436;28;20033;-93
2021/08/11 04:44:06;;;;;;;0.20;0.20;;;17.00;99.90;;;;;;4976345;28;20037;-94
2021/08/11 04:46:32;;;;;;;0.28;0.28;;;17.00;99.90;;;;;;4975519;28;20027;-93
2021/08/11 04:48:58;;;;;;;0.37;0.37;;;16.90;99.90;;;;;;4976148;28;20057;-92
2021/08/11 04:51:23;;;;;;;0.40;0.40;;;16.80;99.90;;;;;;4974614;28;20062;-92
2021/08/11 04:53:49;;;;;;;0.30;0.30;;;16.80;99.90;;;;;;4973772;28;20057;-93
2021/08/11 04:56:15;;;;;;;0.10;0.10;;;16.80;99.90;;;;;;4974574;28;20053;-92
2021/08/11 04:58:40;;;;;;;0.30;0.30;;;16.80;99.90;;;;;;4975784;28;20053;-92
2021/08/11 05:01:06;;;;;;;3.00;1.90;;;16.90;99.90;;;;;;4972554;28;20103;-93
2021/08/11 05:03:37;;;;;;;0.57;0.57;;;16.80;99.90;;;;;;4972778;28;20928;-92
2021/08/11 05:06:07;;;;;;;1.20;1.10;;;17.20;99.90;;;;;;4966883;28;20125;-90
2021/08/11 05:08:33;;;;;;;0.08;0.08;;;17.40;99.90;;;;;;4967203;28;20074;-91
2021/08/11 05:10:59;;;;;;;0.65;0.65;;;17.70;99.90;;;;;;4970229;28;20031;-89
2021/08/11 05:13:25;;;;;;;0.23;0.20;;;17.80;99.90;;;;;;4970737;28;20469;-85
2021/08/11 05:15:51;;;;;;;0.47;0.47;;;17.90;99.90;;;;;;4967081;28;20027;-84
2021/08/11 05:18:17;;;;;;;0.43;0.20;;;17.90;99.90;;;;;;4969693;28;20046;-87
2021/08/11 05:20:43;;;;;;;0.27;0.27;;;17.90;99.90;;;;;;4966361;28;20137;-92
2021/08/11 05:23:08;;;;;;;0.40;0.40;;;18.40;99.90;;;;;;4974225;28;20508;-93
2021/08/11 05:25:34;;;;;;;2.27;0.47;;;19.00;99.90;;;;;;4967136;28;20030;-92
2021/08/11 05:28:00;;;;;;;0.20;0.20;;;19.20;99.90;;;;;;4970213;28;20058;-93
2021/08/11 05:30:25;;;;;;;0.20;0.20;;;19.40;99.90;;;;;;4974025;28;20090;-90
2021/08/11 05:32:51;;;;;;;0.67;0.67;;;19.60;99.90;;;;;;4973547;28;20512;-92
2021/08/11 05:35:17;;;;;;;0.27;0.23;;;19.90;99.90;;;;;;4976113;28;20037;-92
2021/08/11 05:37:42;;;;;;;0.10;0.10;;;20.20;99.90;;;;;;4972986;28;20054;-93
2021/08/11 05:40:09;;;;;;;0.43;0.30;;;20.60;99.90;;;;;;4967671;28;20386;-93
2021/08/11 05:42:34;;;;;;;0.20;0.20;;;20.80;99.90;;;;;;4973017;28;20113;-94
2021/08/11 05:45:00;;;;;;;1.30;0.53;;;21.10;99.90;;;;;;4962963;28;20498;-92
2021/08/11 05:47:26;;;;;;;0.10;0.10;;;21.70;99.90;;;;;;4967135;28;20533;-91
2021/08/11 05:49:51;;;;;;;0.20;0.20;;;21.80;99.90;;;;;;4974443;28;20031;-92
2021/08/11 05:52:17;;;;;;;0.87;0.53;;;22.00;99.90;;;;;;4969204;28;20082;-88
2021/08/11 05:54:43;;;;;;;0.37;0.33;;;22.70;99.90;;;;;;4964460;28;20130;-90
2021/08/11 05:57:08;;;;;;;0.00;0.00;;;22.70;99.90;;;;;;4961583;28;20035;-89
2021/08/11 05:59:37;;;;;;;0.23;0.23;;;22.80;99.90;;;;;;4964905;28;20062;-89
2021/08/11 06:02:03;;;;;;;0.38;0.38;;;22.70;99.90;;;;;;4965074;28;20290;-89
2021/08/11 06:04:29;;;;;;;0.10;0.10;;;22.30;99.90;;;;;;4952126;28;20034;-89
2021/08/11 06:06:54;;;;;;;0.73;0.47;;;22.20;99.90;;;;;;4959241;28;20124;-89
2021/08/11 06:09:20;;;;;;;0.40;0.40;;;23.00;99.90;;;;;;4964444;28;20482;-88
2021/08/11 06:11:46;;;;;;;0.20;0.20;;;23.30;99.90;;;;;;4962298;28;20053;-89
2021/08/11 06:14:12;;;;;;;0.22;0.20;;;22.50;99.90;;;;;;4960486;28;20144;-89
2021/08/11 06:16:38;;;;;;;0.88;0.35;;;23.30;99.90;;;;;;4964119;28;20051;-89
2021/08/11 06:19:04;;;;;;;0.17;0.17;;;23.40;99.90;;;;;;4958795;28;20074;-91
2021/08/11 06:21:30;;;;;;;1.15;0.73;;;23.70;99.90;;;;;;4954540;28;20035;-88
2021/08/11 06:23:56;;;;;;;0.00;0.00;;;24.50;99.90;;;;;;4962428;28;20069;-89
2021/08/11 06:26:22;;;;;;;0.20;0.20;;;24.20;99.90;;;;;;4965137;28;20038;-89
2021/08/11 06:28:49;;;;;;;0.10;0.10;;;24.60;99.90;;;;;;4964845;28;20043;-88
2021/08/11 06:31:17;;;;;;;0.13;0.13;;;25.40;99.90;;;;;;4967798;28;20062;-89
2021/08/11 06:33:44;;;;;;;0.22;0.22;;;25.70;99.90;;;;;;4968103;28;20041;-89
2021/08/11 06:36:10;;;;;;;0.15;0.10;;;25.50;99.90;;;;;;4964802;28;20090;-88
2021/08/11 06:38:35;;;;;;;0.55;0.55;;;26.00;99.90;;;;;;4965000;28;20046;-88
2021/08/11 06:41:01;;;;;;;0.25;0.25;;;26.90;99.70;;;;;;4962934;28;20031;-89
2021/08/11 06:43:27;;;;;;;0.30;0.20;;;27.20;97.50;;;;;;4964876;28;20066;-90
2021/08/11 06:45:53;;;;;;;1.45;0.65;;;26.00;99.90;;;;;;4966447;28;20030;-88
2021/08/11 06:48:18;;;;;;;0.20;0.20;;;26.30;98.90;;;;;;4964222;28;20239;-88
2021/08/11 06:50:44;;;;;;;0.20;0.20;;;27.10;97.10;;;;;;4966288;28;20038;-90
2021/08/11 06:53:10;;;;;;;0.10;0.10;;;26.80;97.10;;;;;;4965427;28;20035;-89
2021/08/11 06:55:35;;;;;;;0.00;0.00;;;26.70;96.40;;;;;;4965100;28;20036;-88
2021/08/11 06:58:01;;;;;;;0.32;0.20;;;26.40;97.20;;;;;;4967672;28;20038;-88
2021/08/11 07:00:27;;;;;;;0.28;0.25;;;26.70;96.60;;;;;;4965295;28;20031;-89
2021/08/11 07:02:53;;;;;;;0.10;0.10;;;26.80;96.90;;;;;;4963561;28;20090;-90
2021/08/11 07:05:19;;;;;;;0.15;0.10;;;27.60;95.00;;;;;;4965359;28;20031;-89
2021/08/11 07:07:44;;;;;;;0.20;0.20;;;28.50;92.90;;;;;;4964680;28;20031;-90
2021/08/11 07:10:12;;;;;;;0.22;0.20;;;28.80;92.30;;;;;;4966546;28;20049;-89
2021/08/11 07:12:38;;;;;;;1.35;0.55;;;29.40;90.30;;;;;;4964997;28;20089;-89
2021/08/11 07:15:08;;;;;;;0.28;0.10;;;28.50;90.90;;;;;;4964321;28;20038;-90
2021/08/11 07:17:34;;;;;;;0.00;0.00;;;29.50;89.00;;;;;;4965405;28;20062;-89
2021/08/11 07:20:00;;;;;;;0.20;0.20;;;29.50;86.80;;;;;;4964413;28;20030;-89
2021/08/11 07:22:25;;;;;;;0.20;0.20;;;29.40;85.90;;;;;;4964977;28;20502;-90
2021/08/11 07:24:51;;;;;;;0.00;0.00;;;29.20;83.90;;;;;;4964207;28;20039;-90
2021/08/11 07:27:18;;;;;;;0.08;0.08;;;29.60;82.90;;;;;;4959628;28;20136;-89
2021/08/11 07:29:43;;;;;;;;;;;30.30;79.40;;;;;;4964513;28;20093;-89
2021/08/11 07:32:09;;;;;;;0.43;0.40;;;30.30;78.20;;;;;;4959118;28;20741;-90
2021/08/11 07:34:35;;;;;;;0.10;0.10;;;30.20;78.70;;;;;;4964652;28;20611;-92
2021/08/11 07:37:01;;;;;;;;;;;30.80;73.50;;;;;;4969074;28;20434;-92
2021/08/11 07:39:26;;;;;;;;;;;29.30;75.40;;;;;;4970885;28;19921;-92
2021/08/11 07:41:52;;;;;;;0.32;0.25;;;31.10;74.70;;;;;;4967321;28;20400;-92
2021/08/11 07:44:17;;;;;;;;;;;31.60;72.70;;;;;;4967328;28;20461;-95
2021/08/11 07:46:43;;;;;;;;;;;31.80;69.30;;;;;;4965584;28;19910;-92
2021/08/11 07:49:09;;;;;;;;;;;31.00;66.60;;;;;;4957718;28;19925;-93
2021/08/11 07:51:34;;;;;;;0.10;0.10;;;30.80;68.80;;;;;;4951792;28;19913;-92
2021/08/11 07:54:00;;;;;;;;;;;31.40;67.20;;;;;;4968498;28;20066;-92
2021/08/11 07:56:26;;;;;;;0.30;0.30;;;32.00;65.00;;;;;;4969167;28;19932;-93
2021/08/11 07:58:51;;;;;;;;;;;32.20;61.40;;;;;;4969431;28;20088;-93
2021/08/11 08:01:17;;;;;;;20.23;0.43;;;32.20;59.10;;;;;;4968189;28;19914;-92
2021/08/11 08:03:43;;;;;;;;;;;32.30;57.00;;;;;;4953638;28;20061;-91
2021/08/11 08:06:08;;;;;;;0.10;0.10;;;31.90;56.90;;;;;;4966196;28;19906;-92
2021/08/11 08:08:34;;;;;;;;;;;33.20;55.20;;;;;;4963038;28;20038;-96
2021/08/11 08:11:00;;;;;;;0.15;0.15;;;33.90;52.70;;;;;;4960968;28;19914;-95
2021/08/11 08:13:26;;;;;;;0.75;0.40;;;33.70;50.30;;;;;;4966767;28;20036;-94
2021/08/11 08:15:52;;;;;;;;;;;35.10;49.80;;;;;;4965480;28;20774;-94
2021/08/11 08:18:21;;;;;;;0.20;0.20;;;33.20;51.70;;;;;;4967239;28;19913;-94
2021/08/11 08:20:55;;;;;;;0.00;0.00;;;33.40;50.70;;;;;;4964381;28;20041;-94
2021/08/11 08:23:22;;;;;;;0.15;0.15;;;33.70;49.80;;;;;;4965747;28;20142;-95
2021/08/11 08:25:48;;;;;;;0.00;0.00;;;34.00;45.80;;;;;;4969116;28;20033;-94
2021/08/11 08:28:14;;;;;;;0.20;0.20;;;34.70;47.30;;;;;;4970337;28;20223;-96
2021/08/11 08:30:42;;;;;;;0.52;0.50;;;34.90;44.90;;;;;;4958431;28;20031;-95
2021/08/11 08:33:07;;;;;;;0.00;0.00;;;35.70;46.50;;;;;;4964409;28;20482;-95
2021/08/11 08:35:33;;;;;;;0.40;0.25;;;36.60;44.50;;;;;;4963098;28;20030;-95
2021/08/11 08:37:59;;;;;;;0.28;0.20;;;38.60;38.30;;;;;;4969499;28;20034;-95
2021/08/11 08:40:36;;;;;;;4.28;0.43;;;36.60;36.20;;;;;;4955200;28;20576;-94
2021/08/11 08:43:04;;;;;;;0.00;0.00;;;37.50;32.60;;;;;;4967860;28;20034;-92
2021/08/11 08:45:29;;;;;;;0.00;0.00;;;36.00;34.00;;;;;;4967299;28;20081;-92
2021/08/11 08:47:56;;;;;;;0.17;0.17;;;37.20;30.40;;;;;;4964660;28;20034;-91
2021/08/11 08:50:23;;;;;;;0.38;0.38;;;38.20;28.80;;;;;;4964211;28;20043;-90
2021/08/11 08:52:50;;;;;;;0.20;0.20;;;38.70;28.40;;;;;;4963290;28;20023;-89
2021/08/11 08:55:19;;;;;;;0.15;0.15;;;39.60;25.90;;;;;;4965486;28;20412;-89
2021/08/11 08:57:45;;;;;;;0.17;0.17;;;39.50;25.20;;;;;;4964801;28;20031;-89
2021/08/11 09:00:11;;;;;;;0.30;0.30;;;39.50;25.30;;;;;;4961650;28;20038;-90
2021/08/11 09:02:41;;;;;;;0.25;0.25;;;40.40;22.30;;;;;;4965111;28;20123;-88
2021/08/11 09:05:09;;;;;;;0.28;0.28;;;40.20;17.80;;;;;;4963238;28;20039;-90
2021/08/11 09:07:43;;;;;;;0.45;0.43;;;41.60;16.60;;;;;;4961465;28;20058;-89
2021/08/11 09:10:32;;;;;;;0.00;0.00;;;41.90;15.00;;;;;;4964657;28;20037;-89
2021/08/11 09:13:03;;;;;;;0.05;0.05;;;41.00;17.90;;;;;;4964147;28;20100;-89
2021/08/11 09:15:35;;;;;;;0.00;0.00;;;40.80;14.40;;;;;;4961984;28;20497;-90
2021/08/11 09:18:27;;;;;;;0.00;0.00;;;41.00;13.00;;;;;;4958904;28;20062;-89
2021/08/11 09:20:58;;;;;;;0.52;0.20;;;41.40;10.50;;;;;;4957507;28;20073;-88
2021/08/11 09:23:37;;;;;;;0.15;0.13;;;43.70;7.30;;;;;;4960989;28;20473;-88
2021/08/11 09:26:05;;;;;;;0.00;0.00;;;42.30;7.30;;;;;;4960130;28;20051;-88
2021/08/11 09:28:36;;;;;;;0.10;0.10;;;41.30;6.70;;;;;;4963509;28;20061;-89
2021/08/11 09:31:19;;;;;;;0.57;0.35;;;40.40;9.60;;;;;;4968118;28;20023;-88
2021/08/11 09:33:57;;;;;;;0.10;0.10;;;40.00;10.10;;;;;;4966589;28;20044;-88
2021/08/11 09:36:24;;;;;;;0.10;0.10;;;40.60;9.70;;;;;;4959062;28;20023;-85
2021/08/11 09:38:54;;;;;;;0.15;0.15;;;42.20;5.80;;;;;;4960928;28;20145;-87
2021/08/11 09:41:20;;;;;;;0.28;0.28;;;42.30;5.50;;;;;;4963064;28;20082;-85
2021/08/11 09:43:45;;;;;;;0.10;0.10;;;40.70;3.90;;;;;;4964445;28;20031;-85
2021/08/11 09:46:11;;;;;;;0.00;0.00;;;41.60;4.80;;;;;;4968312;28;20015;-85
2021/08/11 09:48:42;;;;;;;0.10;0.10;;;43.80;1.80;;;;;;4964796;28;20049;-87
2021/08/11 09:51:10;;;;;;;0.10;0.08;;;44.10;1.00;;;;;;4964321;28;20109;-87
2021/08/11 09:53:38;;;;;;;0.08;0.08;;;42.60;1.00;;;;;;4964667;28;20035;-86
2021/08/11 09:56:11;;;;;;;0.10;0.10;;;41.90;2.90;;;;;;4964332;28;20574;-86
2021/08/11 09:58:42;;;;;;;0.03;0.03;;;42.70;1.60;;;;;;4965862;28;20041;-86
2021/08/11 10:01:14;;;;;;;0.10;0.10;;;42.40;1.00;;;;;;4967421;28;20034;-87
2021/08/11 10:03:56;;;;;;;0.00;0.00;;;39.00;9.00;;;;;;4964517;28;20225;-86
2021/08/11 10:06:31;;;;;;;0.10;0.10;;;41.40;7.70;;;;;;4964454;28;20011;-87
2021/08/11 10:09:12;;;;;;;;;;;41.40;3.40;;;;;;4974017;28;20050;-87
2021/08/11 10:11:42;;;;;;;0.10;0.10;;;42.30;3.80;;;;;;4963146;28;19920;-88
2021/08/11 10:14:13;;;;;;;0.55;0.10;;;43.70;1.00;;;;;;4965450;28;20094;-87
2021/08/11 10:16:39;;;;;;;0.22;0.22;;;40.40;1.00;;;;;;4962410;28;20031;-88
2021/08/11 10:19:06;;;;;;;0.00;0.00;;;39.60;1.00;;;;;;4960791;28;20037;-87
2021/08/11 10:21:34;;;;;;;0.47;0.22;;;39.90;4.80;;;;;;4953427;28;20023;-87
2021/08/11 10:24:01;;;;;;;0.57;0.30;;;40.40;6.50;;;;;;4961708;28;20070;-88
2021/08/11 10:26:28;;;;;;;0.10;0.10;;;39.60;5.20;;;;;;4965809;28;20026;-88
2021/08/11 10:28:54;;;;;;;0.20;0.20;;;41.20;3.70;;;;;;4959274;28;20197;-88
2021/08/11 10:31:21;;;;;;;0.00;0.00;;;41.00;2.00;;;;;;4966828;28;20036;-87
2021/08/11 10:33:49;;;;;;;0.10;0.10;;;40.40;3.40;;;;;;4966340;28;20066;-88
2021/08/11 10:36:16;;;;;;;0.20;0.20;;;39.90;4.70;;;;;;4964564;28;20035;-89
2021/08/11 10:38:46;;;;;;;0.85;0.55;;;40.50;1.00;;;;;;4965009;28;20034;-88
2021/08/11 10:41:13;;;;;;;0.10;0.10;;;42.70;1.00;;;;;;4965170;28;20033;-87
2021/08/11 10:43:39;;;;;;;0.30;0.20;;;41.70;1.00;;;;;;4961119;28;20023;-87
2021/08/11 10:46:16;;;;;;;0.13;0.13;;;38.40;1.70;;;;;;4962748;28;20057;-88
2021/08/11 10:48:42;;;;;;;0.30;0.30;;;37.20;4.50;;;;;;4946675;28;20172;-87
2021/08/11 10:51:08;;;;;;;0.08;0.08;;;37.60;8.80;;;;;;4949380;28;20652;-88
2021/08/11 10:53:34;;;;;;;0.00;0.00;;;39.10;14.70;;;;;;4948422;28;20046;-86
2021/08/11 10:55:59;;;;;;;0.30;0.30;;;39.70;5.10;;;;;;4952793;28;20026;-87
2021/08/11 10:58:41;;;;;;;0.47;0.43;;;39.70;7.50;;;;;;4955087;28;20058;-87
2021/08/11 11:01:34;;;;;;;1.50;0.40;;;39.90;11.40;;;;;;4957541;28;20074;-87
2021/08/11 11:04:02;;;;;;;0.47;0.20;;;39.00;14.40;;;;;;4962333;28;20027;-87
2021/08/11 11:06:50;;;;;;;0.15;0.10;;;36.20;17.20;;;;;;4962960;28;20828;-86
2021/08/11 11:09:18;;;;;;;1.85;0.20;;;34.20;20.90;;;;;;4960807;28;20047;-87
2021/08/11 11:11:45;;;;;;;0.00;0.00;;;33.30;22.40;;;;;;4962165;28;20116;-86
2021/08/11 11:14:58;;;;;;;0.50;0.50;;;33.00;22.60;;;;;;4959602;28;20065;-87
2021/08/11 11:17:26;;;;;;;2.50;0.70;;;31.50;22.90;;;;;;4958077;28;20061;-87
2021/08/11 11:20:09;;;;;;;0.00;0.00;;;31.00;27.70;;;;;;4957910;28;20039;-88
2021/08/11 11:22:36;;;;;;;0.10;0.10;;;31.50;26.40;;;;;;4957266;28;20067;-87
2021/08/11 11:25:06;;;;;;;0.00;0.00;;;32.30;25.00;;;;;;4952152;28;20498;-87
2021/08/11 11:27:38;;;;;;;0.65;0.65;;;30.90;26.10;;;;;;4947928;28;20074;-87
2021/08/11 11:30:30;;;;;;;0.40;0.40;;;30.20;27.80;;;;;;4952790;28;20031;-87
2021/08/11 11:33:18;;;;;;;0.10;0.10;;;30.10;28.20;;;;;;4961280;28;20041;-88
2021/08/11 11:35:44;;;;;;;0.10;0.10;;;30.20;29.80;;;;;;4955523;28;20038;-87
2021/08/11 11:38:11;;;;;;;;;;;30.40;29.50;;;;;;4958763;28;20050;-87
2021/08/11 11:40:55;;;;;;;0.15;0.15;;;30.90;29.70;;;;;;4960197;28;19918;-89
2021/08/11 11:43:29;;;;;;;0.30;0.30;;;30.90;30.00;;;;;;4955355;28;20045;-87
2021/08/11 11:45:56;;;;;;;0.15;0.00;;;30.60;30.40;;;;;;4959380;28;20027;-88
2021/08/11 11:48:22;;;;;;;0.20;0.20;;;30.10;30.30;;;;;;4965404;28;20533;-87
2021/08/11 11:50:50;;;;;;;0.20;0.20;;;29.80;31.20;;;;;;4958585;28;20031;-88
2021/08/11 11:53:23;;;;;;;0.10;0.10;;;29.80;30.90;;;;;;4963014;28;20125;-88
2021/08/11 11:55:49;;;;;;;0.00;0.00;;;29.30;32.50;;;;;;4962260;28;20035;-89
2021/08/11 11:58:42;;;;;;;0.98;0.38;;;29.60;32.00;;;;;;4966941;28;20480;-92
2021/08/11 12:01:10;;;;;;;0.13;0.13;;;29.70;32.30;;;;;;4968538;28;20141;-92
2021/08/11 12:03:41;;;;;;;0.98;0.20;;;29.40;32.80;;;;;;4958684;28;20062;-92
2021/08/11 12:06:08;;;;;;;0.08;0.08;;;29.40;32.80;;;;;;4963678;28;20676;-93
2021/08/11 12:08:35;;;;;;;0.15;0.15;;;29.50;34.00;;;;;;4963390;28;20026;-91
2021/08/11 12:11:06;;;;;;;;;;;29.50;33.20;;;;;;4966324;28;20532;-93
2021/08/11 12:13:45;;;;;;;0.43;0.05;;;29.50;34.00;;;;;;4965556;28;19916;-92
2021/08/11 12:16:13;;;;;;;0.05;0.05;;;29.80;34.50;;;;;;4962732;28;20457;-92
2021/08/11 12:18:41;;;;;;;0.20;0.20;;;29.90;33.20;;;;;;4967299;28;20512;-93
2021/08/11 12:21:07;;;;;;;0.43;0.43;;;29.90;34.10;;;;;;4965037;28;20035;-92
2021/08/11 12:23:34;;;;;;;;;;;30.10;34.20;;;;;;4966894;28;20496;-91
2021/08/11 12:26:03;;;;;;;0.10;0.10;;;30.10;36.20;;;;;;4966802;28;19918;-92
2021/08/11 12:28:33;;;;;;;2.47;0.50;;;30.20;39.60;;;;;;4964484;28;20034;-92
2021/08/11 12:31:02;;;;;;;0.05;0.05;;;30.10;37.10;;;;;;4966452;28;20127;-92
2021/08/11 12:33:30;;;;;;;0.10;0.10;;;29.70;36.90;;;;;;4965371;28;20125;-92
2021/08/11 12:35:57;;;;;;;0.10;0.10;;;29.90;38.90;;;;;;4961869;28;20026;-92
2021/08/11 12:38:34;;;;;;;0.85;0.55;;;29.80;39.30;;;;;;4965657;28;20038;-92
2021/08/11 12:41:23;;;;;;;0.35;0.20;;;29.90;40.00;;;;;;4966376;28;20037;-91
2021/08/11 12:43:51;;;;;;;0.03;0.03;;;29.90;39.90;;;;;;4950810;28;20047;-92
2021/08/11 12:46:36;;;;;;;0.45;0.13;;;29.90;40.10;;;;;;4967488;28;20534;-92
2021/08/11 12:49:24;;;;;;;0.35;0.22;;;29.70;42.30;;;;;;4966930;28;20505;-93
2021/08/11 12:54:54;;;;;;;0.45;0.17;;;29.90;42.50;;;;;;4965159;28;20038;-91
2021/08/11 12:57:21;;;;;;;0.22;0.20;;;29.80;41.00;;;;;;4967230;28;20173;-92
2021/08/11 12:59:53;;;;;;;0.17;0.10;;;29.70;41.20;;;;;;4961652;28;20027;-92
2021/08/11 13:02:27;;;;;;;0.15;0.15;;;29.80;41.90;;;;;;4968835;28;20074;-92
2021/08/11 13:05:14;;;;;;;0.00;0.00;;;29.80;43.00;;;;;;4967859;28;20142;-92